Time;durP1;ratioP1;P1;durP2;ratioP2;P2;SDS_P1;SDS_P2;PMS_P1;PMS_P2;Temp;Humidity;BMP_temperature;BMP_pressure;BME280_temperature;BME280_humidity;BME280_pressure;Samples;Min_cycle;Max_cycle;Signal;HPM_P1;HPM_P2
2021/09/08 00:02:49;;;;;;;8.30;4.03;;;25.40;52.50;;;;;;6247521;28;20029;-77
2021/09/08 00:05:49;;;;;;;9.57;4.40;;;25.40;52.50;;;;;;6247746;28;20037;-77
2021/09/08 00:08:50;;;;;;;12.23;4.55;;;25.30;52.50;;;;;;6231118;28;20041;-77
2021/09/08 00:11:51;;;;;;;9.65;5.00;;;25.30;52.60;;;;;;6246236;28;20378;-77
2021/09/08 00:14:53;;;;;;;6.78;4.07;;;25.30;52.70;;;;;;6222718;28;20430;-77
2021/09/08 00:17:54;;;;;;;12.32;5.05;;;25.30;52.70;;;;;;6248093;28;20064;-78
2021/09/08 00:21:05;;;;;;;6.47;4.20;;;25.30;52.70;;;;;;6247715;28;20057;-77
2021/09/08 00:24:06;;;;;;;6.93;4.13;;;25.20;52.90;;;;;;6245972;28;20048;-77
2021/09/08 00:27:07;;;;;;;9.77;3.90;;;25.20;52.90;;;;;;6229492;28;20063;-77
2021/09/08 00:30:09;;;;;;;7.95;4.00;;;25.20;53.10;;;;;;6225079;28;20371;-77
2021/09/08 00:33:10;;;;;;;8.80;4.68;;;25.20;53.20;;;;;;6245695;28;20366;-77
2021/09/08 00:36:12;;;;;;;11.85;4.13;;;25.20;53.20;;;;;;6239762;28;20026;-77
2021/09/08 00:39:15;;;;;;;6.40;4.40;;;25.10;53.20;;;;;;6239631;28;20068;-77
2021/09/08 00:42:45;;;;;;;7.15;4.18;;;25.10;53.30;;;;;;6245841;28;20038;-77
2021/09/08 00:45:56;;;;;;;;;;;25.10;53.30;;;;;;6240190;28;20026;-77
2021/09/08 00:48:58;;;;;;;7.25;4.32;;;25.10;53.30;;;;;;6234041;28;19918;-77
2021/09/08 00:52:06;;;;;;;6.70;4.10;;;25.10;53.30;;;;;;6222261;28;20045;-77
2021/09/08 00:55:11;;;;;;;6.15;4.05;;;25.00;53.30;;;;;;6242726;28;20057;-77
2021/09/08 00:58:12;;;;;;;9.25;4.50;;;25.00;53.30;;;;;;6240467;28;20033;-77
2021/09/08 01:01:18;;;;;;;6.38;4.07;;;25.00;53.40;;;;;;6242391;28;20029;-77
2021/09/08 01:04:22;;;;;;;6.43;4.18;;;25.00;53.50;;;;;;6238692;28;20446;-77
2021/09/08 01:07:23;;;;;;;7.40;4.13;;;25.00;53.60;;;;;;6217582;28;20044;-77
2021/09/08 01:10:25;;;;;;;8.38;3.97;;;24.90;53.70;;;;;;6241020;28;20048;-77
2021/09/08 01:13:26;;;;;;;6.55;4.40;;;24.90;53.90;;;;;;6220705;28;20055;-77
2021/09/08 01:16:27;;;;;;;8.57;4.53;;;24.90;54.00;;;;;;6224612;28;20037;-77
2021/09/08 01:19:28;;;;;;;7.57;4.32;;;24.90;54.20;;;;;;6226414;28;20033;-77
2021/09/08 01:22:30;;;;;;;11.48;4.43;;;24.80;54.30;;;;;;6247242;28;20103;-77
2021/09/08 01:25:31;;;;;;;7.00;4.30;;;24.80;54.60;;;;;;6245679;28;20377;-77
2021/09/08 01:28:32;;;;;;;5.85;4.55;;;24.70;54.80;;;;;;6226858;28;20033;-77
2021/09/08 01:31:33;;;;;;;9.82;4.43;;;24.70;55.00;;;;;;6228157;28;20041;-77
2021/09/08 01:34:35;;;;;;;9.40;4.47;;;24.70;55.20;;;;;;6242538;28;20067;-77
2021/09/08 01:37:38;;;;;;;7.72;4.35;;;24.60;55.30;;;;;;6247126;28;20082;-77
2021/09/08 01:40:39;;;;;;;6.70;4.20;;;24.60;55.30;;;;;;6245815;28;20514;-77
2021/09/08 01:43:40;;;;;;;4.47;3.60;;;24.50;55.40;;;;;;6244183;28;20045;-76
2021/09/08 01:46:41;;;;;;;12.50;5.30;;;24.60;55.40;;;;;;6243176;28;20033;-79
2021/09/08 01:49:42;;;;;;;8.85;5.00;;;24.60;55.40;;;;;;6219042;28;20330;-79
2021/09/08 01:52:43;;;;;;;7.63;4.15;;;24.60;55.60;;;;;;6245470;28;20029;-79
2021/09/08 01:55:44;;;;;;;7.70;4.72;;;24.50;55.60;;;;;;6245663;28;20075;-79
2021/09/08 01:58:45;;;;;;;12.05;4.95;;;24.50;55.60;;;;;;6226975;28;20459;-79
2021/09/08 02:01:46;;;;;;;5.72;3.63;;;24.50;55.80;;;;;;6245602;28;20048;-76
2021/09/08 02:04:47;;;;;;;7.70;4.40;;;24.50;55.90;;;;;;6245151;28;20443;-77
2021/09/08 02:07:48;;;;;;;6.97;4.45;;;24.40;55.80;;;;;;6246335;28;20478;-78
2021/09/08 02:10:49;;;;;;;6.65;4.20;;;24.40;56.00;;;;;;6245910;28;20033;-77
2021/09/08 02:13:51;;;;;;;8.20;4.03;;;24.40;56.10;;;;;;6243699;28;20046;-77
2021/09/08 02:16:52;;;;;;;5.45;3.95;;;24.40;56.10;;;;;;6227911;28;20308;-77
2021/09/08 02:19:54;;;;;;;7.90;4.10;;;24.30;56.10;;;;;;6259846;28;20446;-76
2021/09/08 02:22:54;;;;;;;5.13;3.95;;;24.20;56.20;;;;;;6228464;28;20470;-77
2021/09/08 02:25:55;;;;;;;9.20;4.38;;;24.10;56.50;;;;;;6245560;28;20037;-77
2021/09/08 02:28:56;;;;;;;7.18;4.47;;;24.00;56.70;;;;;;6244823;28;20511;-77
2021/09/08 02:31:57;;;;;;;7.20;4.47;;;24.00;56.90;;;;;;6227609;28;20055;-77
2021/09/08 02:34:58;;;;;;;6.57;4.47;;;23.90;57.00;;;;;;6244992;28;20097;-77
2021/09/08 02:37:59;;;;;;;8.38;4.72;;;23.90;57.20;;;;;;6246100;28;20366;-76
2021/09/08 02:41:06;;;;;;;6.03;4.32;;;23.80;57.30;;;;;;6234547;28;20528;-76
2021/09/08 02:44:07;;;;;;;10.63;4.28;;;23.80;57.40;;;;;;6244434;28;20113;-76
2021/09/08 02:47:09;;;;;;;6.38;4.28;;;23.70;57.50;;;;;;6241887;28;20037;-76
2021/09/08 02:50:11;;;;;;;6.75;4.10;;;23.70;57.70;;;;;;6229190;28;20091;-77
2021/09/08 02:53:11;;;;;;;6.30;3.72;;;23.60;57.90;;;;;;6243522;28;20413;-77
2021/09/08 02:56:13;;;;;;;6.15;4.25;;;23.50;58.10;;;;;;6215361;28;20474;-78
2021/09/08 02:59:14;;;;;;;6.55;4.13;;;23.40;58.20;;;;;;6243735;28;20037;-79
2021/09/08 03:02:14;;;;;;;7.97;4.22;;;23.40;58.30;;;;;;6244441;28;20112;-76
2021/09/08 03:05:15;;;;;;;7.38;3.97;;;23.40;58.40;;;;;;6245531;28;20109;-78
2021/09/08 03:08:17;;;;;;;11.27;4.28;;;23.40;58.50;;;;;;6246562;28;20103;-79
2021/09/08 03:11:18;;;;;;;9.32;4.43;;;23.30;58.60;;;;;;6221181;28;20056;-79
2021/09/08 03:14:19;;;;;;;8.93;4.00;;;23.30;58.70;;;;;;6245129;28;20466;-76
2021/09/08 03:17:20;;;;;;;6.35;4.43;;;23.30;58.70;;;;;;6241998;28;20066;-78
2021/09/08 03:20:21;;;;;;;9.98;4.43;;;23.30;59.40;;;;;;6242036;28;20523;-78
2021/09/08 03:23:22;;;;;;;10.73;4.45;;;23.20;58.90;;;;;;6222983;28;20034;-78
2021/09/08 03:26:23;;;;;;;7.13;4.30;;;23.20;58.90;;;;;;6247396;28;20455;-78
2021/09/08 03:29:24;;;;;;;8.98;5.43;;;23.20;59.00;;;;;;6244953;28;20061;-77
2021/09/08 03:32:25;;;;;;;8.95;5.05;;;23.20;59.10;;;;;;6227279;28;20104;-78
2021/09/08 03:35:26;;;;;;;8.13;4.80;;;23.10;59.20;;;;;;6228805;28;20087;-78
2021/09/08 03:38:27;;;;;;;9.40;4.93;;;23.10;60.10;;;;;;6229618;28;20034;-78
2021/09/08 03:41:28;;;;;;;8.25;4.70;;;23.00;59.50;;;;;;6245875;28;20041;-78
2021/09/08 03:44:29;;;;;;;10.88;5.07;;;23.00;60.30;;;;;;6241944;28;20026;-78
2021/09/08 03:47:30;;;;;;;13.20;5.47;;;22.90;59.80;;;;;;6243775;28;20041;-78
2021/09/08 03:50:32;;;;;;;12.07;5.40;;;22.90;59.90;;;;;;6218715;28;20029;-78
2021/09/08 03:53:33;;;;;;;9.00;4.78;;;22.80;59.90;;;;;;6228136;28;20120;-78
2021/09/08 03:56:34;;;;;;;13.52;4.72;;;22.80;60.00;;;;;;6244375;28;20032;-78
2021/09/08 03:59:35;;;;;;;8.18;5.47;;;22.80;60.20;;;;;;6245535;28;20454;-78
2021/09/08 04:02:38;;;;;;;9.65;4.88;;;22.80;60.30;;;;;;6227608;28;20072;-78
2021/09/08 04:05:38;;;;;;;14.32;4.90;;;22.70;60.40;;;;;;6228767;28;20453;-78
2021/09/08 04:08:40;;;;;;;10.30;5.03;;;22.70;60.60;;;;;;6237109;28;20068;-78
2021/09/08 04:11:41;;;;;;;8.23;5.05;;;22.60;60.70;;;;;;6219573;28;20048;-78
2021/09/08 04:14:42;;;;;;;9.60;4.88;;;22.60;60.80;;;;;;6246488;28;20040;-78
2021/09/08 04:17:43;;;;;;;8.15;4.43;;;22.60;60.90;;;;;;6227312;28;20037;-78
2021/09/08 04:20:44;;;;;;;9.68;4.93;;;22.50;60.80;;;;;;6228810;28;20037;-78
2021/09/08 04:23:45;;;;;;;8.18;4.68;;;22.50;60.80;;;;;;6235541;28;20049;-78
2021/09/08 04:26:46;;;;;;;7.55;5.28;;;22.50;60.90;;;;;;6224147;28;21123;-78
2021/09/08 04:29:47;;;;;;;7.03;4.80;;;22.50;61.80;;;;;;6246067;28;20033;-79
2021/09/08 04:32:48;;;;;;;8.02;4.65;;;22.50;60.90;;;;;;6227797;28;20042;-78
2021/09/08 04:35:57;;;;;;;5.88;4.43;;;22.50;61.00;;;;;;6225210;28;20470;-78
2021/09/08 04:38:59;;;;;;;11.07;4.90;;;22.50;60.90;;;;;;6250682;28;20033;-78
2021/09/08 04:42:00;;;;;;;8.10;4.88;;;22.50;60.80;;;;;;6228392;28;20037;-78
2021/09/08 04:45:01;;;;;;;8.50;5.05;;;22.50;60.80;;;;;;6244257;28;20034;-78
2021/09/08 04:48:02;;;;;;;8.63;4.75;;;22.50;60.90;;;;;;6246849;28;20462;-78
2021/09/08 04:51:03;;;;;;;9.10;5.35;;;22.50;60.90;;;;;;6229992;28;20045;-78
2021/09/08 04:54:04;;;;;;;6.15;4.50;;;22.50;61.00;;;;;;6231910;28;20362;-78
2021/09/08 04:57:05;;;;;;;9.88;5.07;;;22.50;60.90;;;;;;6247752;28;20033;-78
2021/09/08 05:00:09;;;;;;;8.48;4.10;;;22.40;60.90;;;;;;6252127;28;20346;-78
2021/09/08 05:03:10;;;;;;;12.85;5.05;;;22.40;61.10;;;;;;6250299;28;20037;-78
2021/09/08 05:06:11;;;;;;;9.27;5.07;;;22.30;61.00;;;;;;6235945;28;20049;-78
2021/09/08 05:09:12;;;;;;;9.40;4.88;;;22.30;61.10;;;;;;6251926;28;20056;-78
2021/09/08 05:12:13;;;;;;;8.73;4.95;;;22.30;61.00;;;;;;6250912;28;20328;-77
2021/09/08 05:15:14;;;;;;;17.58;5.47;;;22.40;61.00;;;;;;6234944;28;20137;-77
2021/09/08 05:18:15;;;;;;;8.18;4.72;;;22.40;60.70;;;;;;6235245;28;20048;-78
2021/09/08 05:21:16;;;;;;;13.30;5.43;;;22.40;60.70;;;;;;6248662;28;20033;-77
2021/09/08 05:24:17;;;;;;;11.77;4.90;;;22.40;60.50;;;;;;6233490;28;20036;-78
2021/09/08 05:27:18;;;;;;;8.07;4.45;;;22.40;60.50;;;;;;6233113;28;20080;-77
2021/09/08 05:30:19;;;;;;;15.05;5.45;;;22.40;60.50;;;;;;6235320;28;20430;-77
2021/09/08 05:33:20;;;;;;;8.07;4.53;;;22.40;60.50;;;;;;6229536;28;20095;-79
2021/09/08 05:36:21;;;;;;;9.55;5.70;;;22.40;60.50;;;;;;6249818;28;20446;-77
2021/09/08 05:39:22;;;;;;;7.20;4.68;;;22.30;60.60;;;;;;6249529;28;20041;-79
2021/09/08 05:42:23;;;;;;;13.10;4.97;;;22.30;60.80;;;;;;6248893;28;20025;-77
2021/09/08 05:45:25;;;;;;;7.38;4.57;;;22.30;60.90;;;;;;6222805;28;20397;-78
2021/09/08 05:48:26;;;;;;;9.50;4.95;;;22.30;61.10;;;;;;6248352;28;20442;-78
2021/09/08 05:51:26;;;;;;;9.70;4.65;;;22.20;61.00;;;;;;6233151;28;20056;-79
2021/09/08 05:54:27;;;;;;;6.90;4.45;;;22.20;61.10;;;;;;6231263;28;20371;-77
2021/09/08 05:57:28;;;;;;;8.70;5.03;;;22.20;61.20;;;;;;6248774;28;20029;-78
2021/09/08 06:00:29;;;;;;;10.98;5.10;;;22.20;61.30;;;;;;6251130;28;20034;-78
2021/09/08 06:03:30;;;;;;;11.77;4.93;;;22.20;61.20;;;;;;6250609;28;20481;-78
2021/09/08 06:06:31;;;;;;;9.05;4.60;;;22.20;61.20;;;;;;6250200;28;20034;-78
2021/09/08 06:09:32;;;;;;;10.25;4.95;;;22.20;61.10;;;;;;6232826;28;20350;-78
2021/09/08 06:12:33;;;;;;;13.10;4.93;;;22.20;60.90;;;;;;6249201;28;20060;-78
2021/09/08 06:15:34;;;;;;;40.08;22.90;;;22.20;61.10;;;;;;6250621;28;20048;-78
2021/09/08 06:18:35;;;;;;;8.00;4.95;;;22.30;60.80;;;;;;6258507;28;20037;-78
2021/09/08 06:21:36;;;;;;;11.68;4.78;;;22.30;60.70;;;;;;6236884;28;20095;-78
2021/09/08 06:24:37;;;;;;;11.35;4.65;;;22.40;60.50;;;;;;6255033;28;20041;-78
2021/09/08 06:27:38;;;;;;;14.70;4.63;;;22.40;60.20;;;;;;6237416;28;20075;-76
2021/09/08 06:30:39;;;;;;;7.28;4.13;;;22.40;60.70;;;;;;6256911;28;20144;-77
2021/09/08 06:33:40;;;;;;;12.40;5.03;;;22.50;59.60;;;;;;6253430;28;20034;-77
2021/09/08 06:36:41;;;;;;;10.43;4.43;;;22.50;59.00;;;;;;6252606;28;20034;-77
2021/09/08 06:39:42;;;;;;;11.82;5.88;;;22.60;58.60;;;;;;6234506;28;20128;-78
2021/09/08 06:42:43;;;;;;;9.48;4.70;;;22.60;58.10;;;;;;6248182;28;20037;-78
2021/09/08 06:45:44;;;;;;;6.78;3.88;;;22.70;58.20;;;;;;6247276;28;20450;-78
2021/09/08 06:48:45;;;;;;;12.73;4.00;;;22.70;58.00;;;;;;6232159;28;20044;-78
2021/09/08 06:51:46;;;;;;;6.47;3.97;;;22.90;57.70;;;;;;6231935;28;20041;-77
2021/09/08 06:54:48;;;;;;;9.32;3.90;;;23.00;57.50;;;;;;6247531;28;20037;-78
2021/09/08 06:57:48;;;;;;;10.38;3.83;;;23.10;57.00;;;;;;6246988;28;20094;-79
2021/09/08 07:00:49;;;;;;;6.78;4.05;;;23.20;56.60;;;;;;6247664;28;20474;-79
2021/09/08 07:03:50;;;;;;;8.35;4.22;;;23.30;56.40;;;;;;6247390;28;20447;-79
2021/09/08 07:06:51;;;;;;;14.05;7.07;;;23.30;56.00;;;;;;6246528;28;20030;-77
2021/09/08 07:09:52;;;;;;;6.07;3.90;;;23.40;55.60;;;;;;6246246;28;20037;-77
2021/09/08 07:12:53;;;;;;;8.50;4.68;;;23.50;55.50;;;;;;6229531;28;20041;-78
2021/09/08 07:15:54;;;;;;;9.25;3.83;;;23.50;55.40;;;;;;6230409;28;20049;-78
2021/09/08 07:18:55;;;;;;;15.10;3.78;;;23.60;55.10;;;;;;6221098;28;20021;-77
2021/09/08 07:21:56;;;;;;;6.75;3.78;;;23.70;54.80;;;;;;6226905;28;20026;-78
2021/09/08 07:24:57;;;;;;;8.63;3.58;;;23.70;54.60;;;;;;6245716;28;20108;-77
2021/09/08 07:27:58;;;;;;;10.02;3.63;;;23.80;54.50;;;;;;6229842;28;20041;-77
2021/09/08 07:30:59;;;;;;;8.43;3.47;;;23.90;54.20;;;;;;6245004;28;20041;-78
2021/09/08 07:34:00;;;;;;;7.38;3.33;;;24.00;54.00;;;;;;6244695;28;20382;-78
2021/09/08 07:37:01;;;;;;;9.05;3.55;;;24.10;53.80;;;;;;6219029;28;20073;-77
2021/09/08 07:40:02;;;;;;;9.30;4.25;;;24.20;53.60;;;;;;6246540;28;20394;-78
2021/09/08 07:43:04;;;;;;;6.65;3.63;;;24.20;53.30;;;;;;6245461;28;20038;-77
2021/09/08 07:46:04;;;;;;;10.55;4.65;;;24.30;53.20;;;;;;6226684;28;20430;-77
2021/09/08 07:49:05;;;;;;;9.32;3.95;;;24.50;53.10;;;;;;6208448;28;20477;-77
2021/09/08 07:52:07;;;;;;;9.60;4.57;;;24.60;53.00;;;;;;6246272;28;20116;-78
2021/09/08 07:55:08;;;;;;;5.70;3.63;;;24.80;52.70;;;;;;6242310;28;20033;-79
2021/09/08 07:58:09;;;;;;;7.90;4.03;;;24.90;52.30;;;;;;6244965;28;20055;-79
2021/09/08 08:01:10;;;;;;;8.70;3.67;;;25.00;52.00;;;;;;6244690;28;20351;-78
2021/09/08 08:04:11;;;;;;;9.57;3.80;;;25.10;51.80;;;;;;6228105;28;20124;-80
2021/09/08 08:07:13;;;;;;;7.00;3.78;;;25.10;51.60;;;;;;6227781;28;20432;-80
2021/09/08 08:10:19;;;;;;;9.20;3.50;;;25.30;51.40;;;;;;6245949;28;20061;-78
2021/09/08 08:13:20;;;;;;;13.02;4.15;;;25.40;51.10;;;;;;6225044;28;20057;-79
2021/09/08 08:16:21;;;;;;;10.23;4.05;;;25.50;50.80;;;;;;6244567;28;20037;-79
2021/09/08 08:19:22;;;;;;;9.55;3.40;;;25.60;50.60;;;;;;6220271;28;20083;-79
2021/09/08 08:22:23;;;;;;;11.57;3.95;;;25.80;50.50;;;;;;6228714;28;20040;-77
2021/09/08 08:25:28;;;;;;;6.80;3.88;;;25.90;50.00;;;;;;6227425;28;20034;-77
2021/09/08 08:28:30;;;;;;;8.02;3.47;;;26.10;49.70;;;;;;6222241;28;20049;-77
2021/09/08 08:31:31;;;;;;;7.60;4.25;;;26.20;49.40;;;;;;6228553;28;20037;-77
2021/09/08 08:34:32;;;;;;;7.82;3.50;;;26.30;49.10;;;;;;6242206;28;20040;-78
2021/09/08 08:37:33;;;;;;;6.43;3.35;;;26.40;48.80;;;;;;6227913;28;20034;-77
2021/09/08 08:40:34;;;;;;;7.75;4.32;;;26.60;48.60;;;;;;6245826;28;20037;-77
2021/09/08 08:43:37;;;;;;;12.80;6.20;;;26.80;48.20;;;;;;6244327;28;20052;-78
2021/09/08 08:46:38;;;;;;;6.72;3.88;;;26.90;47.90;;;;;;6245654;28;20487;-78
2021/09/08 08:49:39;;;;;;;9.90;3.55;;;27.00;47.50;;;;;;6245200;28;20474;-78
2021/09/08 08:52:41;;;;;;;8.10;3.35;;;27.10;47.10;;;;;;6244619;28;20034;-78
2021/09/08 08:55:42;;;;;;;7.63;3.28;;;27.20;46.70;;;;;;6243023;28;20026;-80
2021/09/08 08:58:43;;;;;;;6.55;3.75;;;27.20;46.60;;;;;;6244208;28;20125;-79
2021/09/08 09:01:44;;;;;;;8.95;4.55;;;27.30;46.40;;;;;;6217889;28;20104;-78
2021/09/08 09:04:45;;;;;;;7.93;4.63;;;27.40;46.10;;;;;;6239223;28;20134;-78
2021/09/08 09:07:49;;;;;;;7.40;4.57;;;27.40;45.90;;;;;;6240229;28;20045;-77
2021/09/08 09:10:50;;;;;;;10.75;4.28;;;28.80;46.60;;;;;;6243829;28;20079;-77
2021/09/08 09:13:51;;;;;;;12.00;7.07;;;27.60;45.70;;;;;;6225662;28;20053;-79
2021/09/08 09:16:56;;;;;;;6.13;4.05;;;27.70;45.60;;;;;;6243625;28;20490;-77
2021/09/08 09:20:00;;;;;;;8.68;3.60;;;27.80;45.60;;;;;;6243076;28;20033;-78
2021/09/08 09:23:03;;;;;;;5.07;3.20;;;27.90;45.50;;;;;;6227653;28;20041;-79
2021/09/08 09:26:05;;;;;;;26.35;10.35;;;28.00;45.40;;;;;;6245105;28;20031;-78
2021/09/08 09:29:19;;;;;;;7.90;4.10;;;28.10;45.10;;;;;;6243745;28;20103;-78
2021/09/08 09:32:20;;;;;;;6.65;3.55;;;28.10;44.80;;;;;;6244100;28;20041;-78
2021/09/08 09:35:24;;;;;;;6.25;3.38;;;28.20;44.80;;;;;;6224250;28;20367;-79
2021/09/08 09:38:26;;;;;;;6.22;3.45;;;28.30;44.70;;;;;;6242453;28;20033;-79
2021/09/08 09:41:27;;;;;;;19.08;8.70;;;28.40;44.60;;;;;;6247911;28;20025;-79
2021/09/08 09:44:32;;;;;;;9.50;4.43;;;28.50;44.40;;;;;;6247699;28;20049;-78
2021/09/08 09:47:35;;;;;;;7.40;3.17;;;28.60;44.50;;;;;;6243343;28;20048;-78
2021/09/08 09:50:38;;;;;;;5.38;3.63;;;28.70;44.20;;;;;;6247784;28;20033;-78
2021/09/08 09:53:41;;;;;;;9.80;3.42;;;28.70;44.20;;;;;;6250926;28;20025;-78
2021/09/08 09:56:42;;;;;;;7.30;4.03;;;28.80;44.10;;;;;;6231548;28;20026;-78
2021/09/08 09:59:43;;;;;;;7.35;3.70;;;28.80;43.90;;;;;;6247123;28;20037;-79
2021/09/08 10:02:46;;;;;;;10.73;4.10;;;28.80;43.80;;;;;;6247052;28;20120;-78
2021/09/08 10:05:48;;;;;;;8.63;3.40;;;28.80;43.70;;;;;;6247224;28;20435;-78
2021/09/08 10:08:50;;;;;;;7.35;4.00;;;28.80;43.60;;;;;;6245806;28;20045;-78
2021/09/08 10:11:53;;;;;;;13.88;4.53;;;28.80;43.50;;;;;;6230502;28;20168;-79
2021/09/08 10:14:54;;;;;;;12.95;3.90;;;28.90;43.50;;;;;;6229015;28;20057;-78
2021/09/08 10:18:07;;;;;;;10.98;3.85;;;29.00;43.40;;;;;;6246855;28;20116;-78
2021/09/08 10:21:19;;;;;;;9.30;3.72;;;29.00;43.20;;;;;;6225652;28;20034;-77
2021/09/08 10:24:24;;;;;;;15.93;3.90;;;29.10;43.10;;;;;;6227581;28;20021;-79
2021/09/08 10:27:33;;;;;;;6.68;3.88;;;29.20;43.00;;;;;;6225845;28;20041;-79
2021/09/08 10:30:35;;;;;;;6.40;4.03;;;29.30;42.90;;;;;;6245957;28;20475;-77
2021/09/08 10:33:41;;;;;;;7.35;4.70;;;29.40;42.80;;;;;;6245412;28;20087;-78
2021/09/08 10:36:43;;;;;;;6.63;3.83;;;29.50;42.50;;;;;;6242207;28;20064;-78
2021/09/08 10:39:46;;;;;;;8.35;4.03;;;29.90;42.10;;;;;;6244966;28;20041;-78
2021/09/08 10:43:00;;;;;;;6.22;3.90;;;30.20;41.40;;;;;;6246571;28;20061;-79
2021/09/08 10:46:04;;;;;;;5.13;3.67;;;30.50;41.00;;;;;;6244087;28;20425;-78
2021/09/08 10:49:05;;;;;;;6.05;3.67;;;30.80;40.40;;;;;;6230178;28;20041;-79
2021/09/08 10:52:31;;;;;;;7.10;3.25;;;31.10;40.00;;;;;;6246151;28;20029;-79
2021/09/08 10:55:52;;;;;;;8.32;4.00;;;31.30;39.40;;;;;;6245026;28;20041;-78
2021/09/08 10:59:00;;;;;;;5.20;3.30;;;31.50;39.00;;;;;;6246944;28;20212;-78
2021/09/08 11:02:01;;;;;;;5.50;3.50;;;31.70;38.50;;;;;;6228067;28;20056;-78
2021/09/08 11:05:02;;;;;;;8.57;4.13;;;31.90;38.00;;;;;;6247668;28;20033;-78
2021/09/08 11:08:03;;;;;;;6.57;3.60;;;32.20;37.60;;;;;;6229731;28;20033;-78
2021/09/08 11:11:16;;;;;;;4.53;3.17;;;32.40;36.90;;;;;;6246698;28;20030;-78
2021/09/08 11:14:18;;;;;;;6.63;3.28;;;32.60;36.40;;;;;;6226107;28;20080;-78
2021/09/08 11:17:23;;;;;;;7.85;3.60;;;32.80;36.10;;;;;;6247019;28;20025;-80
2021/09/08 11:20:24;;;;;;;8.15;3.45;;;33.00;35.60;;;;;;6229109;28;20049;-78
2021/09/08 11:23:27;;;;;;;6.68;3.22;;;33.00;34.90;;;;;;6228358;28;20036;-79
2021/09/08 11:26:31;;;;;;;7.25;3.50;;;33.00;34.70;;;;;;6245469;28;20041;-78
2021/09/08 11:29:33;;;;;;;9.40;3.08;;;33.10;34.50;;;;;;6244269;28;20113;-78
2021/09/08 11:33:05;;;;;;;5.63;3.08;;;33.10;34.30;;;;;;6217929;28;20041;-79
2021/09/08 11:36:27;;;;;;;7.68;2.80;;;33.40;34.10;;;;;;6117409;29;20202;-79
2021/09/08 11:39:29;;;;;;;7.88;3.55;;;33.70;33.20;;;;;;6135133;28;20036;-78
2021/09/08 11:42:41;;;;;;;4.55;3.20;;;34.00;32.90;;;;;;6145223;29;20039;-78
2021/09/08 11:45:43;;;;;;;4.55;3.30;;;34.30;32.70;;;;;;6129858;29;20453;-78
2021/09/08 11:48:46;;;;;;;5.15;2.90;;;34.60;32.50;;;;;;6129229;29;20042;-78
2021/09/08 11:51:48;;;;;;;6.97;3.30;;;35.00;32.20;;;;;;6116662;29;20153;-78
2021/09/08 11:54:49;;;;;;;8.68;2.90;;;35.40;31.40;;;;;;6129358;29;20043;-78
2021/09/08 11:57:50;;;;;;;7.47;4.28;;;35.70;30.70;;;;;;6134951;29;20047;-80
2021/09/08 12:01:09;;;;;;;10.63;3.42;;;36.00;30.00;;;;;;6135076;28;20491;-78
2021/09/08 12:04:11;;;;;;;3.38;2.63;;;36.30;29.50;;;;;;6134846;28;20035;-78
2021/09/08 12:07:12;;;;;;;3.97;2.55;;;36.60;28.90;;;;;;6118940;29;20035;-80
2021/09/08 12:10:13;;;;;;;5.55;3.45;;;36.80;28.50;;;;;;6128597;29;20118;-78
2021/09/08 12:13:31;;;;;;;4.05;2.67;;;37.20;28.10;;;;;;6228881;28;20025;-77
2021/09/08 12:16:35;;;;;;;;;;;37.50;27.50;;;;;;6221835;28;20059;-78
2021/09/08 12:19:43;;;;;;;4.97;2.92;;;37.80;27.00;;;;;;6242066;28;19923;-78
2021/09/08 12:22:44;;;;;;;4.80;3.13;;;38.00;26.30;;;;;;6197116;28;20124;-78
2021/09/08 12:26:02;;;;;;;3.63;2.40;;;38.30;26.00;;;;;;6242702;28;20087;-78
2021/09/08 12:29:09;;;;;;;4.20;2.55;;;38.90;25.70;;;;;;6224465;28;20041;-78
2021/09/08 12:32:09;;;;;;;7.37;3.10;;;39.40;25.20;;;;;;6248632;28;20038;-78
2021/09/08 12:35:11;;;;;;;4.20;2.70;;;39.70;24.60;;;;;;6242186;28;20038;-78
2021/09/08 12:38:39;;;;;;;6.40;2.35;;;40.00;24.20;;;;;;6244045;28;20171;-77
2021/09/08 12:41:59;;;;;;;10.85;3.00;;;40.30;23.70;;;;;;6218443;28;20033;-78
2021/09/08 12:45:07;;;;;;;3.67;2.75;;;40.70;23.10;;;;;;6241178;28;20048;-78
2021/09/08 12:48:08;;;;;;;6.78;2.72;;;41.00;22.70;;;;;;6254111;28;20033;-78
2021/09/08 12:51:09;;;;;;;6.28;2.45;;;41.30;22.60;;;;;;6244308;28;20454;-78
2021/09/08 12:54:12;;;;;;;4.82;2.70;;;41.60;22.20;;;;;;6243550;28;20026;-78
2021/09/08 12:57:14;;;;;;;6.07;2.53;;;41.90;21.90;;;;;;6242906;28;20033;-79
2021/09/08 13:00:16;;;;;;;9.20;2.80;;;42.30;21.60;;;;;;6241915;28;20091;-77
2021/09/08 13:03:18;;;;;;;7.55;2.45;;;42.90;21.10;;;;;;6245998;28;20111;-78
2021/09/08 13:06:20;;;;;;;9.25;2.40;;;43.00;20.60;;;;;;6244567;28;20037;-79
2021/09/08 13:09:21;;;;;;;4.50;2.90;;;43.10;20.60;;;;;;6226377;28;20370;-78
2021/09/08 13:12:23;;;;;;;3.38;2.25;;;43.20;20.40;;;;;;6247655;28;20033;-77
2021/09/08 13:15:24;;;;;;;4.53;2.72;;;43.40;20.30;;;;;;6243404;28;20045;-78
2021/09/08 13:18:25;;;;;;;5.82;2.47;;;43.70;20.50;;;;;;6246806;28;20052;-79
2021/09/08 13:21:27;;;;;;;4.50;2.55;;;43.80;19.70;;;;;;6215087;28;20045;-78
2021/09/08 13:24:32;;;;;;;6.15;3.00;;;43.80;19.60;;;;;;6213035;28;20033;-77
2021/09/08 13:27:35;;;;;;;8.57;2.60;;;43.90;19.30;;;;;;6223148;28;20049;-78
2021/09/08 13:30:36;;;;;;;5.22;2.55;;;44.00;19.30;;;;;;6240758;28;20132;-79
2021/09/08 13:33:37;;;;;;;5.72;2.33;;;44.10;19.00;;;;;;6248173;28;20452;-78
2021/09/08 13:36:39;;;;;;;8.52;2.20;;;44.00;19.00;;;;;;6220900;28;20082;-78
2021/09/08 13:39:40;;;;;;;5.10;2.45;;;43.80;19.00;;;;;;6231807;28;20049;-78
2021/09/08 13:42:44;;;;;;;15.30;2.58;;;43.80;19.00;;;;;;6231344;28;20042;-78
2021/09/08 13:45:46;;;;;;;5.00;2.30;;;43.40;19.20;;;;;;6248245;28;20056;-78
2021/09/08 13:48:46;;;;;;;3.00;2.67;;;42.30;19.70;;;;;;6230026;28;20125;-78
2021/09/08 13:51:47;;;;;;;6.60;2.47;;;41.10;20.70;;;;;;6245451;28;20033;-78
2021/09/08 13:54:48;;;;;;;6.60;2.88;;;40.10;21.50;;;;;;6241797;28;20037;-79
2021/09/08 13:57:49;;;;;;;4.75;2.58;;;39.30;22.10;;;;;;6248125;28;20041;-76
2021/09/08 14:00:50;;;;;;;5.80;3.22;;;38.60;22.60;;;;;;6231301;28;20414;-78
2021/09/08 14:03:51;;;;;;;6.68;2.60;;;38.00;22.90;;;;;;6246105;28;20052;-77
2021/09/08 14:06:52;;;;;;;12.50;3.28;;;37.60;23.20;;;;;;6243100;28;20354;-77
2021/09/08 14:09:54;;;;;;;6.07;2.70;;;37.30;23.50;;;;;;6249077;28;20033;-77
2021/09/08 14:12:56;;;;;;;5.88;2.95;;;36.90;23.80;;;;;;6246725;28;20049;-77
2021/09/08 14:15:58;;;;;;;4.57;2.80;;;36.50;24.10;;;;;;6258211;28;20088;-77
2021/09/08 14:18:59;;;;;;;5.28;2.88;;;36.20;24.40;;;;;;6265680;28;20041;-78
2021/09/08 14:22:00;;;;;;;8.95;3.35;;;36.00;24.60;;;;;;6259519;28;20402;-78
2021/09/08 14:25:01;;;;;;;4.78;2.78;;;35.70;24.90;;;;;;6242691;28;20056;-77
2021/09/08 14:28:02;;;;;;;5.55;2.70;;;35.50;25.10;;;;;;6252941;28;20041;-78
2021/09/08 14:31:03;;;;;;;4.55;2.72;;;35.40;25.30;;;;;;6244847;28;20491;-78
2021/09/08 14:34:04;;;;;;;3.80;2.53;;;35.20;25.60;;;;;;6227433;28;20520;-77
2021/09/08 14:37:05;;;;;;;8.57;2.63;;;35.00;25.70;;;;;;6247099;28;20442;-77
2021/09/08 14:40:06;;;;;;;8.05;2.83;;;34.80;25.90;;;;;;6246639;28;20025;-79
2021/09/08 14:43:07;;;;;;;6.50;3.00;;;34.70;26.10;;;;;;6230466;28;20067;-78
2021/09/08 14:46:10;;;;;;;5.60;2.78;;;34.60;26.20;;;;;;6246864;28;20049;-78
2021/09/08 14:49:12;;;;;;;8.10;3.05;;;34.50;26.40;;;;;;6246873;28;20100;-77
2021/09/08 14:52:13;;;;;;;7.03;2.42;;;34.30;26.50;;;;;;6228712;28;20087;-79
2021/09/08 14:55:13;;;;;;;13.52;3.08;;;34.20;26.70;;;;;;6246966;28;20133;-77
2021/09/08 14:58:15;;;;;;;3.72;2.70;;;34.00;26.90;;;;;;6247736;28;20034;-79
2021/09/08 15:01:15;;;;;;;4.25;2.55;;;33.90;27.00;;;;;;6247662;28;20484;-78
2021/09/08 15:04:16;;;;;;;7.63;2.78;;;33.90;27.20;;;;;;6246037;28;20033;-78
2021/09/08 15:07:18;;;;;;;6.30;2.92;;;33.70;27.30;;;;;;6245657;28;20495;-78
2021/09/08 15:10:19;;;;;;;4.22;2.90;;;33.70;27.50;;;;;;6246570;28;20029;-79
2021/09/08 15:13:19;;;;;;;7.68;3.13;;;33.70;27.50;;;;;;6228751;28;20036;-78
2021/09/08 15:16:20;;;;;;;5.55;3.05;;;33.60;27.50;;;;;;6228729;28;20030;-77
2021/09/08 15:19:21;;;;;;;19.05;3.65;;;33.60;27.50;;;;;;6244882;28;20033;-79
2021/09/08 15:22:22;;;;;;;7.18;2.90;;;33.60;27.60;;;;;;6242479;28;20037;-78
2021/09/08 15:25:24;;;;;;;6.22;2.80;;;33.60;27.70;;;;;;6248975;28;20060;-79
2021/09/08 15:28:25;;;;;;;4.75;3.00;;;33.60;27.80;;;;;;6249098;28;20037;-79
2021/09/08 15:31:26;;;;;;;4.53;3.10;;;33.50;27.80;;;;;;6246225;28;20538;-79
2021/09/08 15:34:27;;;;;;;8.35;2.97;;;33.50;27.90;;;;;;6228723;28;20047;-78
2021/09/08 15:37:27;;;;;;;6.03;2.65;;;33.60;28.00;;;;;;6244977;28;20026;-79
2021/09/08 15:40:28;;;;;;;6.22;2.92;;;33.50;28.00;;;;;;6245195;28;20114;-78
2021/09/08 15:43:29;;;;;;;9.95;3.35;;;33.50;28.00;;;;;;6223593;28;20037;-79
2021/09/08 15:46:31;;;;;;;7.07;2.63;;;33.40;28.10;;;;;;6206771;28;20388;-78
2021/09/08 15:49:31;;;;;;;4.25;2.88;;;33.40;28.20;;;;;;6227318;28;20086;-77